Time;durP1;ratioP1;P1;durP2;ratioP2;P2;SDS_P1;SDS_P2;PMS_P1;PMS_P2;Temp;Humidity;BMP_temperature;BMP_pressure;BME280_temperature;BME280_humidity;BME280_pressure;Samples;Min_cycle;Max_cycle;Signal;HPM_P1;HPM_P2
2022/09/20 00:02:17;;;;;;;8.60;1.63;;;;;;;;;;5037715;28;20715;-71
2022/09/20 00:04:42;;;;;;;12.87;1.73;;;;;;;;;;5040223;28;20669;-71
2022/09/20 00:07:08;;;;;;;8.73;1.33;;;;;;;;;;5039160;28;20284;-71
2022/09/20 00:09:33;;;;;;;7.97;1.73;;;;;;;;;;5043348;28;20606;-71
2022/09/20 00:11:59;;;;;;;7.43;1.40;;;;;;;;;;5036443;28;20272;-71
2022/09/20 00:14:24;;;;;;;10.43;1.20;;;;;;;;;;5036874;28;20705;-71
2022/09/20 00:16:49;;;;;;;6.33;1.30;;;;;;;;;;5037455;28;20185;-71
2022/09/20 00:19:20;;;;;;;9.87;1.33;;;;;;;;;;5028990;28;20174;-71
2022/09/20 00:21:46;;;;;;;8.53;1.43;;;;;;;;;;5037864;28;20209;-71
2022/09/20 00:24:11;;;;;;;12.27;1.27;;;;;;;;;;5042725;28;20676;-71
2022/09/20 00:26:37;;;;;;;9.70;1.20;;;;;;;;;;5028760;28;20274;-71
2022/09/20 00:29:04;;;;;;;11.03;1.40;;;;;;;;;;5029628;28;20736;-71
2022/09/20 00:31:30;;;;;;;4.30;1.17;;;;;;;;;;5036661;28;20601;-71
2022/09/20 00:36:41;;;;;;;7.90;1.47;;;;;;;;;;5039428;28;20557;-71
2022/09/20 00:39:08;;;;;;;8.53;1.37;;;;;;;;;;5028681;28;20182;-71
2022/09/20 00:41:33;;;;;;;10.27;1.50;;;;;;;;;;5029136;28;20244;-71
2022/09/20 00:44:00;;;;;;;5.93;1.47;;;;;;;;;;5030504;28;20182;-71
2022/09/20 00:46:35;;;;;;;8.07;1.90;;;;;;;;;;5046024;28;20169;-71
2022/09/20 00:49:09;;;;;;;6.20;1.07;;;;;;;;;;5033414;28;20182;-71
2022/09/20 00:51:37;;;;;;;12.43;1.57;;;;;;;;;;5040747;28;20186;-71
2022/09/20 00:54:07;;;;;;;8.53;1.30;;;;;;;;;;5031899;28;20665;-71
2022/09/20 00:56:36;;;;;;;6.50;1.27;;;;;;;;;;5029125;28;20190;-71
2022/09/20 00:59:24;;;;;;;7.87;1.23;;;;;;;;;;5038166;28;20175;-71
2022/09/20 01:02:05;;;;;;;14.67;1.47;;;;;;;;;;5040551;28;20213;-71
2022/09/20 01:04:30;;;;;;;8.60;1.40;;;;;;;;;;5044733;28;21751;-71
2022/09/20 01:07:01;;;;;;;8.83;1.50;;;;;;;;;;5055474;28;20193;-71
2022/09/20 01:09:26;;;;;;;5.90;1.10;;;;;;;;;;5048764;28;20189;-71
2022/09/20 01:11:54;;;;;;;11.10;1.60;;;;;;;;;;5049581;28;20188;-71
2022/09/20 01:14:22;;;;;;;10.80;1.40;;;;;;;;;;5044866;28;20257;-71
2022/09/20 01:16:48;;;;;;;9.80;1.77;;;;;;;;;;5045215;28;20389;-71
2022/09/20 01:19:33;;;;;;;7.17;1.37;;;;;;;;;;5048861;28;20259;-71
2022/09/20 01:22:03;;;;;;;6.23;1.10;;;;;;;;;;5040625;28;20712;-72
2022/09/20 01:24:59;;;;;;;7.50;2.10;;;;;;;;;;5046711;28;20196;-71
2022/09/20 01:27:47;;;;;;;11.47;1.40;;;;;;;;;;5036675;28;20220;-71
2022/09/20 01:30:19;;;;;;;9.53;1.40;;;;;;;;;;5041891;28;20182;-71
2022/09/20 01:32:55;;;;;;;8.87;1.30;;;;;;;;;;5038075;28;20761;-71
2022/09/20 01:35:23;;;;;;;10.13;1.50;;;;;;;;;;5051601;28;20212;-71
2022/09/20 01:38:26;;;;;;;9.07;1.47;;;;;;;;;;5032553;28;20182;-71
2022/09/20 01:41:07;;;;;;;12.23;1.63;;;;;;;;;;5027739;28;20255;-71
2022/09/20 01:43:52;;;;;;;5.67;1.50;;;;;;;;;;5037640;28;20193;-71
2022/09/20 01:46:21;;;;;;;7.87;1.40;;;;;;;;;;5036038;28;20181;-71
2022/09/20 01:48:48;;;;;;;7.83;1.23;;;;;;;;;;5029909;28;20559;-71
2022/09/20 01:51:19;;;;;;;8.57;1.23;;;;;;;;;;5047532;28;20166;-71
2022/09/20 01:53:57;;;;;;;8.57;1.30;;;;;;;;;;5040674;28;20539;-71
2022/09/20 01:56:40;;;;;;;5.80;1.20;;;;;;;;;;5028727;28;20594;-71
2022/09/20 01:59:17;;;;;;;5.50;1.40;;;;;;;;;;5040366;28;20178;-71
2022/09/20 02:02:17;;;;;;;10.48;1.30;;;;;;;;;;5032800;28;20201;-73
2022/09/20 02:05:29;;;;;;;8.13;1.43;;;;;;;;;;5031523;28;20174;-71
2022/09/20 02:08:22;;;;;;;6.93;1.70;;;;;;;;;;5032444;28;20251;-71
2022/09/20 02:11:06;;;;;;;7.93;1.60;;;;;;;;;;5042694;28;20193;-71
2022/09/20 02:14:02;;;;;;;6.90;1.40;;;;;;;;;;5038768;28;20518;-71
2022/09/20 02:16:47;;;;;;;8.60;1.50;;;;;;;;;;5027627;28;20171;-71
2022/09/20 02:19:43;;;;;;;5.55;0.90;;;;;;;;;;5032926;28;20186;-71
2022/09/20 02:22:23;;;;;;;9.63;1.40;;;;;;;;;;5033550;28;20198;-71
2022/09/20 02:25:21;;;;;;;11.82;2.22;;;;;;;;;;5033673;28;20185;-71
2022/09/20 02:28:22;;;;;;;6.57;1.75;;;;;;;;;;5046820;28;20320;-71
2022/09/20 02:31:09;;;;;;;4.78;1.08;;;;;;;;;;5041515;28;20189;-71
2022/09/20 02:33:53;;;;;;;8.93;1.67;;;;;;;;;;5044815;28;20986;-71
2022/09/20 02:36:44;;;;;;;10.80;1.48;;;;;;;;;;5031652;28;20309;-72
2022/09/20 02:39:22;;;;;;;9.87;1.90;;;;;;;;;;5038671;28;20665;-71
2022/09/20 02:41:53;;;;;;;9.23;2.28;;;;;;;;;;5044576;28;20248;-71
2022/09/20 02:44:40;;;;;;;13.38;1.20;;;;;;;;;;5055519;28;20180;-71
2022/09/20 02:47:24;;;;;;;8.18;1.52;;;;;;;;;;5034084;28;20376;-71
2022/09/20 02:50:41;;;;;;;9.13;1.13;;;;;;;;;;5039763;28;20274;-71
2022/09/20 02:53:33;;;;;;;7.55;1.40;;;;;;;;;;5031921;28;20204;-71
2022/09/20 02:56:17;;;;;;;7.60;1.30;;;;;;;;;;5037973;28;20581;-71
2022/09/20 02:58:58;;;;;;;6.03;1.00;;;;;;;;;;5035824;28;20200;-71
2022/09/20 03:01:23;;;;;;;6.18;1.02;;;;;;;;;;5048369;28;20626;-71
2022/09/20 03:03:54;;;;;;;9.87;1.40;;;;;;;;;;5048268;28;20266;-71
2022/09/20 03:06:24;;;;;;;5.10;1.30;;;;;;;;;;5057777;28;20206;-72
2022/09/20 03:09:00;;;;;;;8.05;1.70;;;;;;;;;;5038906;28;20182;-71
2022/09/20 03:11:37;;;;;;;8.55;1.50;;;;;;;;;;5043635;28;20295;-71
2022/09/20 03:14:25;;;;;;;8.20;1.43;;;;;;;;;;5045267;28;20181;-71
2022/09/20 03:17:10;;;;;;;6.33;1.33;;;;;;;;;;5046944;28;20274;-71
2022/09/20 03:19:47;;;;;;;9.27;1.73;;;;;;;;;;5049612;28;20177;-71
2022/09/20 03:22:28;;;;;;;7.10;1.40;;;;;;;;;;5049291;28;20551;-71
2022/09/20 03:25:24;;;;;;;10.07;1.40;;;;;;;;;;5061797;28;20177;-71
2022/09/20 03:28:01;;;;;;;5.90;1.23;;;;;;;;;;5052451;28;20716;-71
2022/09/20 03:30:45;;;;;;;5.65;1.45;;;;;;;;;;5041281;28;20357;-71
2022/09/20 03:33:25;;;;;;;8.90;1.70;;;;;;;;;;5046355;28;20246;-71
2022/09/20 03:36:16;;;;;;;6.55;1.17;;;;;;;;;;5059804;28;20660;-71
2022/09/20 03:38:56;;;;;;;9.20;1.90;;;;;;;;;;5049668;28;20177;-71
2022/09/20 03:41:59;;;;;;;8.47;1.63;;;;;;;;;;5038074;28;20293;-71
2022/09/20 03:44:41;;;;;;;7.50;1.17;;;;;;;;;;5047382;28;20270;-71
2022/09/20 03:47:07;;;;;;;6.22;1.02;;;;;;;;;;5048510;28;20652;-71
2022/09/20 03:49:58;;;;;;;7.38;1.25;;;;;;;;;;5048786;28;20263;-71
2022/09/20 03:52:41;;;;;;;5.40;1.27;;;;;;;;;;5040048;28;20610;-71
2022/09/20 03:55:34;;;;;;;5.83;1.70;;;;;;;;;;5046415;28;20200;-71
2022/09/20 03:58:33;;;;;;;9.57;1.43;;;;;;;;;;5028722;28;20170;-72
2022/09/20 04:01:04;;;;;;;7.77;1.50;;;;;;;;;;5030706;28;20731;-71
2022/09/20 04:03:44;;;;;;;10.10;1.57;;;;;;;;;;5043438;28;20266;-72
2022/09/20 04:06:30;;;;;;;9.30;1.30;;;;;;;;;;5048420;28;20169;-71
2022/09/20 04:09:22;;;;;;;6.93;1.43;;;;;;;;;;5045981;28;20243;-71
2022/09/20 04:12:06;;;;;;;7.93;1.30;;;;;;;;;;5049074;28;20200;-71
2022/09/20 04:14:51;;;;;;;6.25;1.50;;;;;;;;;;5038036;28;20193;-71
2022/09/20 04:17:19;;;;;;;7.83;2.10;;;;;;;;;;5040263;28;20185;-71
2022/09/20 04:19:51;;;;;;;10.63;1.77;;;;;;;;;;5044043;28;20647;-71
2022/09/20 04:22:19;;;;;;;8.53;1.60;;;;;;;;;;5045297;28;20201;-71
2022/09/20 04:25:04;;;;;;;7.40;1.40;;;;;;;;;;5042336;28;20201;-71
2022/09/20 04:27:39;;;;;;;11.37;1.73;;;;;;;;;;5036850;28;20222;-71
2022/09/20 04:30:20;;;;;;;9.77;1.50;;;;;;;;;;5045171;28;20536;-71
2022/09/20 04:32:59;;;;;;;10.80;1.83;;;;;;;;;;5042425;28;20193;-70
2022/09/20 04:39:09;;;;;;;6.80;1.47;;;;;;;;;;5045157;28;20548;-71
2022/09/20 04:42:07;;;;;;;8.90;1.30;;;;;;;;;;5035791;28;20260;-71
2022/09/20 04:44:41;;;;;;;10.63;1.80;;;;;;;;;;5035064;28;20181;-71
2022/09/20 04:47:36;;;;;;;13.47;1.63;;;;;;;;;;5042389;28;20196;-71
2022/09/20 04:50:21;;;;;;;9.33;1.80;;;;;;;;;;5040930;28;20178;-71
2022/09/20 04:53:29;;;;;;;9.77;1.60;;;;;;;;;;5041365;28;20190;-71
2022/09/20 04:56:16;;;;;;;10.32;1.50;;;;;;;;;;5028597;28;20209;-72
2022/09/20 04:59:06;;;;;;;9.93;1.73;;;;;;;;;;5029912;28;20197;-71
2022/09/20 05:02:13;;;;;;;7.70;1.47;;;;;;;;;;5029820;28;20206;-71
2022/09/20 05:05:20;;;;;;;11.73;1.70;;;;;;;;;;5031232;28;20657;-71
2022/09/20 05:08:13;;;;;;;8.43;1.37;;;;;;;;;;5031666;28;20182;-71
2022/09/20 05:10:58;;;;;;;8.23;1.57;;;;;;;;;;5038203;28;20208;-71
2022/09/20 05:13:50;;;;;;;11.07;1.43;;;;;;;;;;5035885;28;20198;-71
2022/09/20 05:16:44;;;;;;;7.13;1.17;;;;;;;;;;5034256;28;20185;-71
2022/09/20 05:19:21;;;;;;;7.17;1.30;;;;;;;;;;5032174;28;20202;-69
2022/09/20 05:22:04;;;;;;;10.93;1.40;;;;;;;;;;5042550;28;20297;-71
2022/09/20 05:24:51;;;;;;;7.68;1.33;;;;;;;;;;5032232;28;20197;-71
2022/09/20 05:27:45;;;;;;;10.80;1.30;;;;;;;;;;5031046;28;20237;-71
2022/09/20 05:30:28;;;;;;;12.43;1.60;;;;;;;;;;5037238;28;20250;-71
2022/09/20 05:33:14;;;;;;;7.82;1.52;;;;;;;;;;5031187;28;20209;-71
2022/09/20 05:36:05;;;;;;;9.45;1.55;;;;;;;;;;5034200;28;20661;-71
2022/09/20 05:38:55;;;;;;;7.07;1.10;;;;;;;;;;5034394;28;20193;-71
2022/09/20 05:41:37;;;;;;;13.02;1.65;;;;;;;;;;5039405;28;20206;-71
2022/09/20 05:44:40;;;;;;;6.45;1.48;;;;;;;;;;5039697;28;20177;-71
2022/09/20 05:47:22;;;;;;;7.07;1.10;;;;;;;;;;5035982;28;20173;-71
2022/09/20 05:50:18;;;;;;;4.93;1.13;;;;;;;;;;5035830;28;20669;-71
2022/09/20 05:53:02;;;;;;;6.30;1.20;;;;;;;;;;4337926;28;10000816;-71
2022/09/20 05:55:49;;;;;;;6.53;1.43;;;;;;;;;;5031007;28;20267;-71
2022/09/20 05:58:29;;;;;;;8.95;1.33;;;;;;;;;;5031220;28;20193;-71
2022/09/20 06:01:16;;;;;;;4.32;1.13;;;;;;;;;;5041554;28;20200;-71
2022/09/20 06:03:54;;;;;;;8.05;1.40;;;;;;;;;;5033585;28;20188;-71
2022/09/20 06:06:33;;;;;;;11.48;1.58;;;;;;;;;;5057859;28;20631;-71
2022/09/20 06:09:32;;;;;;;7.10;1.50;;;;;;;;;;5038375;28;20650;-71
2022/09/20 06:12:30;;;;;;;7.07;1.30;;;;;;;;;;5033647;28;20421;-71
2022/09/20 06:15:14;;;;;;;10.43;1.65;;;;;;;;;;5029097;28;20178;-72
2022/09/20 06:17:49;;;;;;;8.77;1.53;;;;;;;;;;5029562;28;20270;-71
2022/09/20 06:20:18;;;;;;;5.75;1.20;;;;;;;;;;5041922;28;20197;-72
2022/09/20 06:22:53;;;;;;;4.17;1.30;;;;;;;;;;5034594;28;20601;-71
2022/09/20 06:25:22;;;;;;;8.15;1.95;;;;;;;;;;5034665;28;20209;-71
2022/09/20 06:27:59;;;;;;;6.53;1.40;;;;;;;;;;5035353;28;20233;-71
2022/09/20 06:30:32;;;;;;;11.80;1.63;;;;;;;;;;5031454;28;20174;-71
2022/09/20 06:33:09;;;;;;;6.38;1.48;;;;;;;;;;5033401;28;20202;-71
2022/09/20 06:41:51;;;;;;;5.13;1.90;;;;;;;;;;5032251;28;20225;-71
2022/09/20 06:44:16;;;;;;;13.52;1.70;;;;;;;;;;5041167;28;20264;-70
2022/09/20 06:46:41;;;;;;;9.02;1.73;;;;;;;;;;5039481;28;20273;-70
2022/09/20 06:49:08;;;;;;;8.40;2.08;;;;;;;;;;5042266;28;20198;-70
2022/09/20 06:51:35;;;;;;;12.15;1.92;;;;;;;;;;5034435;28;20204;-71
2022/09/20 06:54:02;;;;;;;5.05;1.20;;;;;;;;;;5039750;28;20221;-70
2022/09/20 06:56:32;;;;;;;9.43;1.83;;;;;;;;;;5035311;28;20194;-70
2022/09/20 06:58:58;;;;;;;10.35;1.75;;;;;;;;;;5041250;28;20192;-71
2022/09/20 07:01:23;;;;;;;11.27;2.78;;;;;;;;;;5040678;28;20210;-70
2022/09/20 07:03:48;;;;;;;8.43;1.92;;;;;;;;;;5032734;28;20542;-71
2022/09/20 07:06:18;;;;;;;7.95;1.45;;;;;;;;;;5031336;28;20189;-70
2022/09/20 07:08:47;;;;;;;6.20;1.50;;;;;;;;;;5032166;28;20185;-71
2022/09/20 07:11:15;;;;;;;7.55;1.63;;;;;;;;;;5034137;28;20188;-71
2022/09/20 07:13:44;;;;;;;7.75;1.83;;;;;;;;;;5031775;28;20206;-71
2022/09/20 07:16:12;;;;;;;7.57;1.50;;;;;;;;;;5034335;28;20690;-70
2022/09/20 07:18:40;;;;;;;8.00;1.75;;;;;;;;;;5048824;28;20177;-71
2022/09/20 07:21:07;;;;;;;8.00;1.17;;;;;;;;;;5030125;28;20309;-69
2022/09/20 07:23:32;;;;;;;7.72;1.50;;;;;;;;;;5042345;28;20356;-71
2022/09/20 07:25:59;;;;;;;12.35;1.55;;;;;;;;;;5036511;28;20312;-71
2022/09/20 07:28:25;;;;;;;6.05;1.23;;;;;;;;;;5039199;28;20178;-71
2022/09/20 07:30:50;;;;;;;6.45;1.20;;;;;;;;;;5031262;28;20194;-71
2022/09/20 07:33:20;;;;;;;4.75;1.10;;;;;;;;;;5050237;28;20689;-70
2022/09/20 07:35:49;;;;;;;6.90;1.55;;;;;;;;;;5049030;28;20669;-71
2022/09/20 07:38:15;;;;;;;5.15;1.40;;;;;;;;;;5036999;28;20190;-71
2022/09/20 07:40:41;;;;;;;9.25;1.33;;;;;;;;;;5039769;28;20704;-71
2022/09/20 07:43:07;;;;;;;6.43;1.20;;;;;;;;;;5033976;28;20190;-69
2022/09/20 07:45:37;;;;;;;10.15;1.63;;;;;;;;;;5036194;28;20241;-71
2022/09/20 07:48:04;;;;;;;7.53;1.27;;;;;;;;;;5032082;28;20209;-71
2022/09/20 07:50:30;;;;;;;9.63;1.50;;;;;;;;;;5032586;28;20193;-72
2022/09/20 07:52:56;;;;;;;6.32;1.27;;;;;;;;;;5030860;28;20561;-71
2022/09/20 07:55:21;;;;;;;6.80;1.85;;;;;;;;;;5028806;28;20216;-71
2022/09/20 07:57:47;;;;;;;6.57;1.30;;;;;;;;;;5029399;28;20182;-71
2022/09/20 08:00:13;;;;;;;5.00;0.95;;;;;;;;;;5051442;28;20185;-70
2022/09/20 08:02:39;;;;;;;5.82;1.48;;;;;;;;;;5049712;28;20691;-71
2022/09/20 08:05:05;;;;;;;6.97;1.13;;;;;;;;;;5039864;28;20672;-70
2022/09/20 08:07:30;;;;;;;3.78;0.85;;;;;;;;;;5041563;28;20189;-71
2022/09/20 08:09:55;;;;;;;3.83;1.10;;;;;;;;;;5037967;28;20607;-71
2022/09/20 08:12:21;;;;;;;7.80;1.60;;;;;;;;;;5041264;28;20642;-70
2022/09/20 08:14:47;;;;;;;5.03;1.33;;;;;;;;;;5039165;28;20208;-70
2022/09/20 08:17:12;;;;;;;7.45;1.45;;;;;;;;;;5045057;28;20213;-70
2022/09/20 08:19:38;;;;;;;4.88;1.00;;;;;;;;;;5034812;28;20235;-71
2022/09/20 08:22:05;;;;;;;5.80;1.10;;;;;;;;;;5032066;28;20235;-70
2022/09/20 08:24:30;;;;;;;4.60;1.00;;;;;;;;;;5041312;28;20221;-71
2022/09/20 08:26:56;;;;;;;2.63;0.55;;;;;;;;;;5028189;28;20261;-70
2022/09/20 08:29:21;;;;;;;5.93;1.23;;;;;;;;;;5032544;28;20205;-70
2022/09/20 08:31:47;;;;;;;3.78;0.90;;;;;;;;;;5030551;28;20292;-70
2022/09/20 08:34:13;;;;;;;5.43;1.02;;;;;;;;;;5030758;28;20236;-69
2022/09/20 08:36:41;;;;;;;10.25;0.88;;;;;;;;;;5028452;28;20178;-70
2022/09/20 08:39:07;;;;;;;3.30;0.95;;;;;;;;;;5037514;28;20235;-69
2022/09/20 08:41:45;;;;;;;4.22;0.68;;;;;;;;;;5031562;28;20603;-70
2022/09/20 08:44:31;;;;;;;7.43;1.33;;;;;;;;;;5040987;28;20251;-70
2022/09/20 08:47:05;;;;;;;2.78;0.80;;;;;;;;;;5028643;28;21196;-68
2022/09/20 08:49:31;;;;;;;3.30;0.85;;;;;;;;;;5030534;28;20190;-70
2022/09/20 08:51:58;;;;;;;2.20;0.68;;;;;;;;;;5032345;28;20548;-70
2022/09/20 08:54:25;;;;;;;4.75;0.82;;;;;;;;;;5030139;28;20657;-71
2022/09/20 08:56:51;;;;;;;2.90;0.80;;;;;;;;;;5027786;28;20178;-69
2022/09/20 08:59:19;;;;;;;4.45;0.77;;;;;;;;;;5031821;28;20251;-70
2022/09/20 09:01:49;;;;;;;3.55;0.70;;;;;;;;;;5029648;28;20202;-70
2022/09/20 09:04:24;;;;;;;7.97;0.80;;;;;;;;;;5027621;28;20197;-70
2022/09/20 09:06:51;;;;;;;4.07;0.70;;;;;;;;;;5030401;28;20524;-70
2022/09/20 09:09:26;;;;;;;5.05;0.93;;;;;;;;;;5029452;28;20183;-70
2022/09/20 09:11:53;;;;;;;2.17;0.70;;;;;;;;;;5029265;28;20235;-69
2022/09/20 09:17:15;;;;;;;7.55;0.80;;;;;;;;;;5032952;28;20216;-70
2022/09/20 09:19:51;;;;;;;3.08;0.70;;;;;;;;;;5030882;28;20231;-69
2022/09/20 09:22:24;;;;;;;3.45;0.65;;;;;;;;;;5049534;28;20645;-69
2022/09/20 09:25:20;;;;;;;8.30;1.40;;;;;;;;;;5031662;28;20292;-70
2022/09/20 09:27:57;;;;;;;6.40;0.93;;;;;;;;;;5027661;28;20328;-70
2022/09/20 09:30:30;;;;;;;5.70;0.77;;;;;;;;;;5033771;28;20548;-70
2022/09/20 09:33:24;;;;;;;5.55;0.85;;;;;;;;;;5035954;28;20748;-70
2022/09/20 09:36:06;;;;;;;3.38;0.77;;;;;;;;;;5031440;28;20265;-71
2022/09/20 09:38:40;;;;;;;4.40;1.02;;;;;;;;;;5027526;28;20196;-70
2022/09/20 09:41:25;;;;;;;6.25;0.88;;;;;;;;;;5031911;28;20213;-70
2022/09/20 09:44:17;;;;;;;7.22;0.80;;;;;;;;;;5036295;28;20676;-69
2022/09/20 09:46:43;;;;;;;5.82;0.75;;;;;;;;;;5033675;28;20201;-70
2022/09/20 09:49:15;;;;;;;8.63;0.82;;;;;;;;;;5030825;28;20696;-71
2022/09/20 09:52:00;;;;;;;4.97;0.45;;;;;;;;;;5033818;28;20629;-70
2022/09/20 09:54:28;;;;;;;5.65;0.57;;;;;;;;;;5036918;28;20533;-71
2022/09/20 09:56:56;;;;;;;8.02;1.33;;;;;;;;;;5032883;28;20178;-70
2022/09/20 09:59:45;;;;;;;8.98;1.25;;;;;;;;;;5037230;28;20190;-70
2022/09/20 10:02:11;;;;;;;7.05;0.68;;;;;;;;;;5040774;28;20205;-70
2022/09/20 10:04:46;;;;;;;7.78;0.80;;;;;;;;;;5050447;28;20173;-71
2022/09/20 10:07:36;;;;;;;3.47;0.70;;;;;;;;;;5045815;28;20337;-69
2022/09/20 10:10:31;;;;;;;5.78;0.90;;;;;;;;;;5039161;28;20366;-71
2022/09/20 10:13:07;;;;;;;3.83;0.57;;;;;;;;;;5046456;28;20549;-71
2022/09/20 10:15:44;;;;;;;5.03;0.93;;;;;;;;;;5040285;28;20193;-69
2022/09/20 10:18:36;;;;;;;3.22;0.63;;;;;;;;;;5060086;28;20629;-69
2022/09/20 10:21:07;;;;;;;5.30;0.73;;;;;;;;;;5036073;28;20213;-69
2022/09/20 10:23:59;;;;;;;8.55;0.95;;;;;;;;;;5052195;28;20242;-70
2022/09/20 10:26:37;;;;;;;2.92;0.70;;;;;;;;;;5035569;28;20929;-69
2022/09/20 10:29:34;;;;;;;5.47;0.80;;;;;;;;;;5033637;28;20280;-70
2022/09/20 10:32:20;;;;;;;5.07;0.60;;;;;;;;;;5032341;28;20198;-69
2022/09/20 10:35:12;;;;;;;2.95;0.50;;;;;;;;;;5034605;28;20252;-70
2022/09/20 10:37:58;;;;;;;2.85;1.10;;;;;;;;;;5032731;28;20182;-70
2022/09/20 10:43:13;;;;;;;4.50;0.90;;;;;;;;;;5035680;28;20796;-69
2022/09/20 10:43:39;;;;;;;4.90;0.75;;;;;;;;;;5037800;28;20606;-69
2022/09/20 10:46:36;;;;;;;5.40;1.00;;;;;;;;;;5033810;28;20642;-69
2022/09/20 10:49:24;;;;;;;11.68;1.48;;;;;;;;;;5033518;28;20591;-69
2022/09/20 10:52:05;;;;;;;3.38;0.70;;;;;;;;;;5032305;28;20213;-69
2022/09/20 10:54:33;;;;;;;4.80;1.00;;;;;;;;;;5033604;28;20193;-69
2022/09/20 10:57:18;;;;;;;3.83;0.73;;;;;;;;;;5032545;28;20645;-67
2022/09/20 11:00:06;;;;;;;5.55;0.77;;;;;;;;;;5043614;28;20210;-68
2022/09/20 11:02:46;;;;;;;6.97;0.88;;;;;;;;;;5031707;28;20221;-69
2022/09/20 11:05:47;;;;;;;10.25;1.27;;;;;;;;;;5030509;28;20666;-71
2022/09/20 11:08:21;;;;;;;6.03;0.95;;;;;;;;;;5066756;28;20184;-70
2022/09/20 11:10:57;;;;;;;9.05;0.90;;;;;;;;;;5042394;28;20600;-69
2022/09/20 11:13:33;;;;;;;6.70;1.25;;;;;;;;;;5036280;28;20686;-70
2022/09/20 11:16:13;;;;;;;4.30;0.90;;;;;;;;;;5041445;28;20658;-71
2022/09/20 11:18:49;;;;;;;3.70;0.73;;;;;;;;;;5042214;28;20648;-70
2022/09/20 11:21:45;;;;;;;4.90;0.65;;;;;;;;;;5051690;28;20193;-70
2022/09/20 11:24:33;;;;;;;4.40;1.15;;;;;;;;;;5041369;28;20197;-74
2022/09/20 11:27:13;;;;;;;6.65;0.70;;;;;;;;;;5048391;28;20236;-72
2022/09/20 11:29:59;;;;;;;5.50;0.63;;;;;;;;;;5047324;28;20284;-73
2022/09/20 11:32:31;;;;;;;8.02;1.15;;;;;;;;;;5038233;28;20197;-71
2022/09/20 11:35:30;;;;;;;5.93;0.90;;;;;;;;;;5044393;28;20177;-72
2022/09/20 11:38:28;;;;;;;7.30;1.25;;;;;;;;;;5053579;28;20197;-72
2022/09/20 11:41:00;;;;;;;2.83;1.08;;;;;;;;;;5027897;28;20205;-70
2022/09/20 11:43:29;;;;;;;7.18;0.93;;;;;;;;;;5039928;28;20331;-70
2022/09/20 11:45:59;;;;;;;3.67;0.68;;;;;;;;;;5033974;28;20193;-70
2022/09/20 11:48:37;;;;;;;3.05;0.70;;;;;;;;;;5038587;28;20669;-72
2022/09/20 11:51:27;;;;;;;5.03;0.75;;;;;;;;;;5039020;28;20201;-70
2022/09/20 11:54:27;;;;;;;6.43;0.80;;;;;;;;;;5027921;28;20213;-71
2022/09/20 11:56:56;;;;;;;3.22;0.52;;;;;;;;;;5037289;28;20649;-70
2022/09/20 11:59:48;;;;;;;6.15;0.95;;;;;;;;;;5045954;28;20177;-72
2022/09/20 12:02:27;;;;;;;6.72;0.98;;;;;;;;;;5051752;28;20205;-72
2022/09/20 12:04:52;;;;;;;4.60;0.90;;;;;;;;;;5032164;28;20609;-71
2022/09/20 12:07:34;;;;;;;6.07;0.80;;;;;;;;;;5033644;28;20202;-70
2022/09/20 12:10:24;;;;;;;3.67;0.52;;;;;;;;;;5031088;28;20225;-74
2022/09/20 12:12:56;;;;;;;5.07;0.60;;;;;;;;;;5039962;28;20222;-69
2022/09/20 12:15:26;;;;;;;4.53;0.88;;;;;;;;;;5030230;28;20461;-69
2022/09/20 12:17:51;;;;;;;3.85;0.98;;;;;;;;;;5044319;28;20241;-69
2022/09/20 12:20:35;;;;;;;6.03;0.85;;;;;;;;;;5042382;28;20259;-70
2022/09/20 12:23:41;;;;;;;3.42;0.60;;;;;;;;;;5041418;28;20581;-73
2022/09/20 12:26:19;;;;;;;3.05;0.50;;;;;;;;;;5031786;28;20226;-70
2022/09/20 12:28:48;;;;;;;3.85;0.60;;;;;;;;;;5028999;28;20261;-73
2022/09/20 12:31:24;;;;;;;3.72;0.60;;;;;;;;;;5030246;28;20192;-70
2022/09/20 12:34:09;;;;;;;3.35;0.60;;;;;;;;;;5033821;28;20242;-71
2022/09/20 12:36:41;;;;;;;3.00;0.55;;;;;;;;;;5045937;28;20713;-71
2022/09/20 12:39:10;;;;;;;3.30;0.85;;;;;;;;;;5042216;28;20772;-72
2022/09/20 12:41:46;;;;;;;5.72;0.43;;;;;;;;;;5035176;28;20201;-70
2022/09/20 12:44:42;;;;;;;1.20;0.40;;;;;;;;;;5034925;28;20518;-71
2022/09/20 12:47:10;;;;;;;2.35;0.52;;;;;;;;;;5030638;28;20194;-71
2022/09/20 12:52:49;;;;;;;2.85;0.60;;;;;;;;;;5028545;28;20243;-71
2022/09/20 12:55:45;;;;;;;2.60;0.88;;;;;;;;;;5029351;28;20192;-71
2022/09/20 12:58:13;;;;;;;2.92;0.82;;;;;;;;;;5032536;28;20260;-70
2022/09/20 13:00:50;;;;;;;3.38;0.85;;;;;;;;;;5032082;28;20201;-71
2022/09/20 13:03:33;;;;;;;2.10;0.82;;;;;;;;;;4335000;28;10000713;-71
2022/09/20 13:06:05;;;;;;;5.53;1.23;;;;;;;;;;5037012;28;20185;-71
2022/09/20 13:08:58;;;;;;;2.45;0.90;;;;;;;;;;5030688;28;20272;-70
2022/09/20 13:11:28;;;;;;;2.65;0.82;;;;;;;;;;5044957;28;20213;-70
2022/09/20 13:14:09;;;;;;;3.70;0.90;;;;;;;;;;5031936;28;20619;-71
2022/09/20 13:16:52;;;;;;;3.90;1.13;;;;;;;;;;5033721;28;20189;-71
2022/09/20 13:19:32;;;;;;;3.50;0.80;;;;;;;;;;5034173;28;20264;-71
2022/09/20 13:22:23;;;;;;;4.25;1.00;;;;;;;;;;5041292;28;20200;-70
2022/09/20 13:24:53;;;;;;;2.45;1.00;;;;;;;;;;5035078;28;20196;-70
2022/09/20 13:27:45;;;;;;;6.05;1.13;;;;;;;;;;5028894;28;20226;-69
2022/09/20 13:30:19;;;;;;;6.60;1.15;;;;;;;;;;5028675;28;20182;-69
2022/09/20 13:32:46;;;;;;;4.93;1.35;;;;;;;;;;5027629;28;20201;-69
2022/09/20 13:35:12;;;;;;;7.00;0.90;;;;;;;;;;5030327;28;20182;-69
2022/09/20 13:37:52;;;;;;;5.00;0.93;;;;;;;;;;5033068;28;20201;-69
2022/09/20 13:40:24;;;;;;;3.53;0.68;;;;;;;;;;5031270;28;20209;-69
2022/09/20 13:42:52;;;;;;;9.23;1.02;;;;;;;;;;5028090;28;20198;-69
2022/09/20 13:45:20;;;;;;;3.67;0.65;;;;;;;;;;5029445;28;20261;-70
2022/09/20 13:47:51;;;;;;;1.58;0.50;;;;;;;;;;5025079;28;20186;-67
2022/09/20 13:50:22;;;;;;;4.68;0.68;;;;;;;;;;5028005;28;20180;-68
2022/09/20 13:52:54;;;;;;;1.40;0.70;;;;;;;;;;5026649;28;20796;-68
2022/09/20 13:55:34;;;;;;;4.50;0.75;;;;;;;;;;5028055;28;20182;-69
2022/09/20 13:58:25;;;;;;;6.60;1.02;;;;;;;;;;5025943;28;20189;-69
2022/09/20 14:00:53;;;;;;;4.97;0.80;;;;;;;;;;5026156;28;20672;-69
2022/09/20 14:03:20;;;;;;;4.03;0.90;;;;;;;;;;5030143;28;20193;-69
2022/09/20 14:05:51;;;;;;;5.18;0.82;;;;;;;;;;5029298;28;20271;-69
2022/09/20 14:08:34;;;;;;;5.55;0.90;;;;;;;;;;5026499;28;20224;-68
2022/09/20 14:11:26;;;;;;;5.15;1.00;;;;;;;;;;5032186;28;20182;-68
2022/09/20 14:13:54;;;;;;;5.78;1.02;;;;;;;;;;5028393;28;20763;-68
2022/09/20 14:16:23;;;;;;;3.75;0.95;;;;;;;;;;5027209;28;20261;-68
2022/09/20 14:18:49;;;;;;;5.10;0.80;;;;;;;;;;5027999;28;20672;-68
2022/09/20 14:21:22;;;;;;;6.03;0.90;;;;;;;;;;5040098;28;20209;-69
2022/09/20 14:23:50;;;;;;;4.15;0.90;;;;;;;;;;5028655;28;20240;-68
2022/09/20 14:26:15;;;;;;;4.55;0.75;;;;;;;;;;5033926;28;20283;-68
2022/09/20 14:28:41;;;;;;;4.90;0.70;;;;;;;;;;5030601;28;20182;-67
2022/09/20 14:31:13;;;;;;;2.13;0.70;;;;;;;;;;5031953;28;20202;-68
2022/09/20 14:33:43;;;;;;;5.28;0.90;;;;;;;;;;5030687;28;20650;-67
2022/09/20 14:36:14;;;;;;;4.28;0.77;;;;;;;;;;5032379;28;20177;-68
2022/09/20 14:38:43;;;;;;;6.65;0.77;;;;;;;;;;5037295;28;20197;-67
2022/09/20 14:41:09;;;;;;;5.07;1.00;;;;;;;;;;5031412;28;20170;-68
2022/09/20 14:43:35;;;;;;;4.82;0.60;;;;;;;;;;5030599;28;20178;-68
2022/09/20 14:46:03;;;;;;;5.10;0.90;;;;;;;;;;5030224;28;20182;-69
2022/09/20 14:48:40;;;;;;;3.83;0.55;;;;;;;;;;5042377;28;20185;-68
2022/09/20 14:51:15;;;;;;;3.60;0.70;;;;;;;;;;5030024;28;20190;-69
2022/09/20 14:53:41;;;;;;;4.63;0.82;;;;;;;;;;5033983;28;20181;-70
2022/09/20 14:56:10;;;;;;;2.65;0.57;;;;;;;;;;5033822;28;20190;-71
2022/09/20 14:59:02;;;;;;;2.92;0.80;;;;;;;;;;5032713;28;20270;-69
2022/09/20 15:01:28;;;;;;;5.53;0.55;;;;;;;;;;5029859;28;20237;-70
2022/09/20 15:03:55;;;;;;;4.13;0.70;;;;;;;;;;5047058;28;20227;-74
2022/09/20 15:06:21;;;;;;;4.72;0.63;;;;;;;;;;5037484;28;20179;-71
2022/09/20 15:08:47;;;;;;;6.75;0.90;;;;;;;;;;5042069;28;20192;-70
2022/09/20 15:11:14;;;;;;;4.55;0.47;;;;;;;;;;5049285;28;20215;-70
2022/09/20 15:13:39;;;;;;;3.95;0.63;;;;;;;;;;5045073;28;20675;-71
2022/09/20 15:16:05;;;;;;;5.22;0.85;;;;;;;;;;5039668;28;20182;-71
2022/09/20 15:18:38;;;;;;;3.97;0.90;;;;;;;;;;5032772;28;20197;-70
2022/09/20 15:21:04;;;;;;;4.70;0.90;;;;;;;;;;5031110;28;20224;-71
2022/09/20 15:23:30;;;;;;;4.07;0.80;;;;;;;;;;5043434;28;20197;-70
2022/09/20 15:25:55;;;;;;;4.80;0.82;;;;;;;;;;5042476;28;20229;-70
2022/09/20 15:28:21;;;;;;;2.28;0.73;;;;;;;;;;5037533;28;20193;-70
2022/09/20 15:30:49;;;;;;;3.65;1.45;;;;;;;;;;5030485;28;20265;-70
2022/09/20 15:33:15;;;;;;;6.72;1.00;;;;;;;;;;5033479;28;20285;-70
2022/09/20 15:35:42;;;;;;;8.50;2.00;;;;;;;;;;5033215;28;20182;-70
2022/09/20 15:38:10;;;;;;;5.00;1.13;;;;;;;;;;5041059;28;20701;-70
2022/09/20 15:40:46;;;;;;;4.55;1.23;;;;;;;;;;5061090;28;20243;-70
2022/09/20 15:43:15;;;;;;;4.93;1.63;;;;;;;;;;5030377;28;20301;-70
2022/09/20 15:45:51;;;;;;;4.95;1.00;;;;;;;;;;5036546;28;20212;-69
2022/09/20 15:48:21;;;;;;;6.75;2.22;;;;;;;;;;5033532;28;20182;-71
2022/09/20 15:51:14;;;;;;;10.75;4.38;;;;;;;;;;5030218;28;20968;-71
2022/09/20 15:53:44;;;;;;;5.13;1.98;;;;;;;;;;5029917;28;20186;-71
2022/09/20 15:56:18;;;;;;;6.82;2.50;;;;;;;;;;5031062;28;20186;-71
2022/09/20 15:58:49;;;;;;;9.63;1.40;;;;;;;;;;5030727;28;20182;-71